createdAt,value
2022-09-30T06:52:36.038Z,14.45
2022-09-30T06:55:24.255Z,10.80
2022-09-30T06:58:14.710Z,11.75
2022-09-30T07:01:03.852Z,12.23
2022-09-30T07:03:54.501Z,12.23
2022-09-30T07:09:27.617Z,10.98
2022-09-30T07:12:13.759Z,11.00
2022-09-30T07:15:00.168Z,10.85
2022-09-30T07:17:51.836Z,13.10
2022-09-30T07:23:27.756Z,19.23
2022-09-30T07:26:15.862Z,10.27
2022-09-30T07:29:02.563Z,10.63
2022-09-30T07:31:48.833Z,9.98
2022-09-30T07:34:36.183Z,11.45
2022-09-30T07:37:24.818Z,9.45
2022-09-30T07:40:11.674Z,10.82
2022-09-30T07:42:58.484Z,12.43
2022-09-30T07:45:46.119Z,9.57
2022-09-30T07:48:51.998Z,11.82
2022-09-30T07:51:40.955Z,12.30
2022-09-30T07:54:29.888Z,12.35
2022-09-30T07:57:16.566Z,12.15
2022-09-30T08:00:17.334Z,13.05
2022-09-30T08:03:09.065Z,13.32
2022-09-30T08:05:55.004Z,13.23
2022-09-30T08:08:43.893Z,14.38
2022-09-30T08:11:33.989Z,13.07
2022-09-30T08:14:25.817Z,15.02
2022-09-30T08:19:58.137Z,15.50
2022-09-30T08:22:44.445Z,18.52
2022-09-30T08:25:30.840Z,19.95
2022-09-30T08:28:18.349Z,21.70
2022-09-30T08:31:10.538Z,21.20
2022-09-30T08:33:56.594Z,23.12
2022-09-30T08:36:42.887Z,23.50
2022-09-30T08:39:28.769Z,22.83
2022-09-30T08:42:35.608Z,26.17
2022-09-30T08:45:36.359Z,22.33
2022-09-30T08:48:39.158Z,19.62
2022-09-30T08:51:38.000Z,19.37
2022-09-30T08:54:26.280Z,21.53
2022-09-30T08:57:12.854Z,18.90
2022-09-30T09:00:06.008Z,18.92
2022-09-30T09:02:54.503Z,17.33
2022-09-30T09:06:24.992Z,16.83
2022-09-30T09:09:39.240Z,16.33
2022-09-30T09:12:32.424Z,13.82
2022-09-30T09:15:25.908Z,11.20
2022-09-30T09:18:23.565Z,11.93
2022-09-30T09:21:35.414Z,10.73
2022-09-30T09:24:25.246Z,8.45
2022-09-30T09:27:20.399Z,8.60
2022-09-30T09:30:12.460Z,9.82
2022-09-30T09:33:03.055Z,5.57
2022-09-30T09:36:18.992Z,6.22
2022-09-30T09:39:08.085Z,7.87
2022-09-30T09:42:07.954Z,7.72
2022-09-30T09:45:04.139Z,10.23
2022-09-30T09:47:53.824Z,10.00
2022-09-30T09:51:01.059Z,6.82
2022-09-30T09:53:49.566Z,7.20
2022-09-30T09:56:37.888Z,8.00
2022-09-30T09:59:24.627Z,8.70
2022-09-30T10:02:29.660Z,8.52
2022-09-30T10:05:26.730Z,8.18
2022-09-30T10:08:21.754Z,7.60
2022-09-30T10:11:20.868Z,6.28
2022-09-30T10:14:17.404Z,7.10
2022-09-30T10:17:05.658Z,8.60
2022-09-30T10:19:54.295Z,6.25
2022-09-30T10:22:40.882Z,5.57
2022-09-30T10:25:26.974Z,5.77
2022-09-30T10:28:23.936Z,6.53
2022-09-30T10:31:18.319Z,7.03
2022-09-30T10:34:24.886Z,6.65
2022-09-30T10:37:16.129Z,5.67
2022-09-30T10:40:06.462Z,4.75
2022-09-30T10:42:52.943Z,4.15
2022-09-30T10:45:41.291Z,4.23
2022-09-30T10:48:31.816Z,4.40
2022-09-30T10:51:34.010Z,4.95
2022-09-30T10:55:01.158Z,4.95
2022-09-30T10:57:49.916Z,3.95
2022-09-30T11:00:37.583Z,3.62
2022-09-30T11:03:49.302Z,4.93
2022-09-30T11:06:39.485Z,4.85
2022-09-30T11:09:35.885Z,4.30
2022-09-30T11:12:30.751Z,3.08
2022-09-30T11:15:22.467Z,2.25
2022-09-30T11:18:19.200Z,5.07
2022-09-30T11:21:46.094Z,3.10
2022-09-30T11:24:42.012Z,13.13
2022-09-30T11:27:43.440Z,1.52
2022-09-30T11:30:37.216Z,2.20
2022-09-30T11:34:20.899Z,3.28
2022-09-30T11:37:37.988Z,2.42
2022-09-30T11:41:01.365Z,1.80
2022-09-30T11:44:05.605Z,2.45
2022-09-30T11:47:08.817Z,1.15
2022-09-30T11:50:07.775Z,8.88
2022-09-30T11:53:30.946Z,2.17
2022-09-30T11:56:48.628Z,1.60
2022-09-30T11:59:47.650Z,1.62
2022-09-30T12:02:40.408Z,2.00
2022-09-30T12:05:31.096Z,1.65
2022-09-30T12:08:21.290Z,1.60
2022-09-30T12:11:11.815Z,1.58
2022-09-30T12:14:03.411Z,0.80
2022-09-30T12:16:51.462Z,1.55
2022-09-30T12:19:45.780Z,1.42
2022-09-30T12:22:43.281Z,1.35
2022-09-30T12:25:32.293Z,4.70
2022-09-30T12:28:42.747Z,4.25
2022-09-30T12:31:44.453Z,1.05
